createdAt,value
2018-03-19T00:00:19.225Z,22.23
2018-03-19T00:02:47.624Z,22.10
2018-03-19T00:05:16.091Z,17.13
2018-03-19T00:07:44.472Z,13.60
2018-03-19T00:10:12.856Z,13.30
2018-03-19T00:12:41.398Z,14.53
2018-03-19T00:15:09.771Z,16.67
2018-03-19T00:17:38.164Z,14.13
2018-03-19T00:20:06.541Z,13.17
2018-03-19T00:22:34.975Z,13.20
2018-03-19T00:25:03.357Z,13.50
2018-03-19T00:27:31.780Z,19.87
2018-03-19T00:30:00.138Z,17.50
2018-03-19T00:32:28.506Z,16.80
2018-03-19T00:34:56.913Z,21.47
2018-03-19T00:37:25.356Z,17.33
2018-03-19T00:39:53.780Z,28.17
2018-03-19T00:42:22.189Z,23.00
2018-03-19T00:44:50.560Z,19.70
2018-03-19T00:47:19.013Z,20.00
2018-03-19T00:49:47.423Z,21.03
2018-03-19T00:52:15.814Z,19.57
2018-03-19T00:54:44.248Z,20.67
2018-03-19T00:57:12.607Z,19.53
2018-03-19T00:59:40.997Z,21.43
2018-03-19T01:02:09.435Z,23.67
2018-03-19T01:04:37.813Z,29.87
2018-03-19T01:07:06.225Z,31.90
2018-03-19T01:09:34.660Z,26.43
2018-03-19T01:12:03.081Z,20.23
2018-03-19T01:14:31.727Z,29.90
2018-03-19T01:17:00.153Z,21.37
2018-03-19T01:19:28.547Z,23.53
2018-03-19T01:21:56.991Z,24.97
2018-03-19T01:24:25.368Z,32.07
2018-03-19T01:26:53.777Z,30.67
2018-03-19T01:29:22.144Z,30.17
2018-03-19T01:31:50.556Z,32.17
2018-03-19T01:34:19.299Z,31.00
2018-03-19T01:36:47.687Z,31.70
2018-03-19T01:39:16.151Z,31.10
2018-03-19T01:41:44.600Z,29.23
2018-03-19T01:44:12.984Z,29.13
2018-03-19T01:46:41.417Z,30.03
2018-03-19T01:49:09.800Z,27.53
2018-03-19T01:51:38.174Z,32.67
2018-03-19T01:54:06.596Z,34.13
2018-03-19T01:56:34.968Z,32.23
2018-03-19T01:59:03.390Z,38.93
2018-03-19T02:01:31.832Z,35.00
2018-03-19T02:04:00.252Z,29.13
2018-03-19T02:06:28.609Z,30.77
2018-03-19T02:08:56.992Z,26.40
2018-03-19T02:11:25.408Z,23.60
2018-03-19T02:13:53.809Z,29.20
2018-03-19T02:16:22.241Z,24.97
2018-03-19T02:18:50.603Z,31.43
2018-03-19T02:21:19.047Z,30.80
2018-03-19T02:23:47.892Z,26.67
2018-03-19T02:26:16.290Z,27.23
2018-03-19T02:28:44.688Z,24.33
2018-03-19T02:31:13.335Z,25.57
2018-03-19T02:33:41.734Z,20.73
2018-03-19T02:36:10.106Z,20.50
2018-03-19T02:38:38.521Z,23.20
2018-03-19T02:41:06.909Z,19.97
2018-03-19T02:43:35.349Z,21.37
2018-03-19T02:46:04.342Z,20.60
2018-03-19T02:48:32.730Z,17.47
2018-03-19T02:51:01.203Z,20.80
2018-03-19T02:53:29.979Z,16.70
2018-03-19T02:55:58.339Z,18.13
2018-03-19T02:58:26.723Z,15.40
2018-03-19T03:00:55.220Z,15.53
2018-03-19T03:03:23.624Z,19.03
2018-03-19T03:05:52.050Z,15.67
2018-03-19T03:08:21.260Z,14.13
2018-03-19T03:10:49.652Z,14.83
2018-03-19T03:13:18.033Z,14.00
2018-03-19T03:15:46.511Z,14.23
2018-03-19T03:18:14.886Z,15.57
2018-03-19T03:20:43.274Z,15.57
2018-03-19T03:23:11.709Z,16.20
2018-03-19T03:25:40.105Z,11.80
2018-03-19T03:28:08.503Z,12.57
2018-03-19T03:30:36.916Z,17.40
2018-03-19T03:33:05.293Z,13.30
2018-03-19T03:35:33.669Z,15.90
2018-03-19T03:38:02.128Z,15.33
2018-03-19T03:40:30.492Z,17.27
2018-03-19T03:42:58.917Z,16.53
2018-03-19T03:45:27.287Z,18.30
2018-03-19T03:47:55.692Z,19.53
2018-03-19T03:50:24.167Z,23.27
2018-03-19T03:52:52.527Z,16.73
2018-03-19T03:55:20.937Z,19.40
2018-03-19T03:57:49.376Z,18.13
2018-03-19T04:00:17.783Z,15.40
2018-03-19T04:02:46.165Z,18.43
2018-03-19T04:05:14.535Z,15.30
2018-03-19T04:07:42.943Z,17.37
2018-03-19T04:10:11.361Z,20.23
2018-03-19T04:12:39.736Z,15.43
2018-03-19T04:15:08.176Z,16.53
2018-03-19T04:17:36.571Z,20.57
2018-03-19T04:20:05.024Z,18.73
2018-03-19T04:22:33.419Z,20.83
2018-03-19T04:25:01.867Z,24.17
2018-03-19T04:27:30.257Z,21.27
2018-03-19T04:29:58.660Z,22.73
2018-03-19T04:32:27.087Z,28.10
2018-03-19T04:34:55.528Z,25.10
2018-03-19T04:37:23.915Z,23.67
2018-03-19T04:39:52.340Z,24.73
2018-03-19T04:42:20.711Z,28.23
2018-03-19T04:44:49.186Z,29.73
2018-03-19T04:47:17.569Z,28.43
2018-03-19T04:49:45.988Z,28.17
2018-03-19T04:52:14.385Z,36.77
2018-03-19T04:54:42.817Z,32.90
2018-03-19T04:57:11.184Z,34.00
2018-03-19T04:59:39.621Z,32.30
2018-03-19T05:02:08.005Z,35.00
2018-03-19T05:04:36.397Z,29.23
2018-03-19T05:07:04.789Z,27.93
2018-03-19T05:09:33.232Z,24.10
2018-03-19T05:12:01.607Z,23.80
2018-03-19T05:14:30.029Z,28.60
2018-03-19T05:16:58.570Z,23.50
2018-03-19T05:19:27.075Z,28.80
2018-03-19T05:21:55.508Z,24.43
2018-03-19T05:24:23.975Z,20.17
2018-03-19T05:26:52.452Z,20.33
2018-03-19T05:29:20.898Z,23.10
2018-03-19T05:31:49.308Z,22.93
2018-03-19T05:34:17.848Z,22.63
2018-03-19T05:36:46.244Z,11.37
2018-03-19T05:39:14.668Z,15.30
2018-03-19T05:41:43.157Z,13.03
2018-03-19T05:44:11.520Z,14.80
2018-03-19T05:46:39.930Z,14.93
2018-03-19T05:49:08.345Z,12.70
2018-03-19T05:51:36.694Z,14.33
2018-03-19T05:54:05.079Z,13.33
2018-03-19T05:56:33.529Z,12.60
2018-03-19T05:59:01.929Z,14.07
2018-03-19T06:01:30.343Z,12.20
2018-03-19T06:03:58.723Z,16.87
2018-03-19T06:06:27.137Z,14.33
2018-03-19T06:08:55.536Z,15.30
2018-03-19T06:11:23.985Z,12.77
2018-03-19T06:13:52.352Z,15.70
2018-03-19T06:16:20.745Z,12.40
2018-03-19T06:18:49.109Z,10.20
2018-03-19T06:21:17.567Z,15.03
2018-03-19T06:23:45.944Z,13.47
2018-03-19T06:26:14.397Z,18.17
2018-03-19T06:28:42.784Z,12.77
2018-03-19T06:31:11.213Z,13.60
2018-03-19T06:33:39.882Z,12.30
2018-03-19T06:36:08.301Z,9.77
2018-03-19T06:38:36.700Z,9.13
2018-03-19T06:41:05.078Z,10.73
2018-03-19T06:43:33.739Z,9.93
2018-03-19T06:46:02.095Z,10.27
2018-03-19T06:48:30.469Z,9.50
2018-03-19T06:50:59.065Z,10.80
2018-03-19T06:53:27.584Z,9.80
2018-03-19T06:55:55.992Z,9.77
2018-03-19T06:58:24.374Z,9.33
2018-03-19T07:00:52.847Z,8.47
2018-03-19T07:03:21.237Z,11.67
2018-03-19T07:05:49.637Z,8.83
2018-03-19T07:08:18.077Z,7.00
2018-03-19T07:10:46.664Z,7.47
2018-03-19T07:13:15.040Z,7.77
2018-03-19T07:15:43.482Z,10.03
2018-03-19T07:18:11.914Z,7.80
2018-03-19T07:20:40.356Z,8.43
2018-03-19T07:23:08.737Z,10.27
2018-03-19T07:25:37.114Z,6.20
2018-03-19T07:28:05.745Z,7.60
2018-03-19T07:30:34.175Z,6.57
2018-03-19T07:33:02.571Z,6.90
2018-03-19T07:35:30.981Z,6.90
2018-03-19T07:37:59.420Z,6.83
2018-03-19T07:40:27.824Z,7.67
2018-03-19T07:42:56.228Z,7.17
2018-03-19T07:45:24.657Z,7.47
2018-03-19T07:47:53.390Z,8.53
2018-03-19T07:50:21.778Z,6.70
2018-03-19T07:52:50.196Z,8.90
2018-03-19T07:55:18.635Z,4.83
2018-03-19T07:57:47.015Z,8.13
2018-03-19T08:00:15.438Z,8.10
2018-03-19T08:02:43.877Z,6.70
2018-03-19T08:05:12.438Z,7.93
2018-03-19T08:07:40.865Z,8.03
2018-03-19T08:10:09.258Z,5.97
2018-03-19T08:12:37.800Z,10.53
2018-03-19T08:15:06.252Z,9.37
2018-03-19T08:17:34.725Z,4.43
2018-03-19T08:20:03.121Z,6.53
2018-03-19T08:22:31.501Z,6.97
2018-03-19T08:24:59.940Z,5.50
2018-03-19T08:27:28.313Z,8.37
2018-03-19T08:29:56.794Z,6.93
2018-03-19T08:32:25.144Z,5.13
2018-03-19T08:34:53.568Z,5.13
2018-03-19T08:37:22.021Z,6.20
2018-03-19T08:39:50.436Z,8.90
2018-03-19T08:42:18.790Z,4.03
2018-03-19T08:44:47.251Z,5.57
2018-03-19T08:47:15.609Z,8.03
2018-03-19T08:49:43.975Z,6.77
2018-03-19T08:52:12.390Z,8.67
2018-03-19T08:54:40.800Z,5.93
2018-03-19T08:57:09.225Z,10.43
2018-03-19T08:59:37.662Z,10.33
2018-03-19T09:02:06.053Z,8.33
2018-03-19T09:04:34.528Z,4.67
2018-03-19T09:07:03.032Z,4.80
2018-03-19T09:09:31.463Z,7.90
2018-03-19T09:11:59.868Z,3.00
2018-03-19T09:14:28.256Z,8.20
2018-03-19T09:16:56.649Z,9.60
2018-03-19T09:19:25.074Z,6.50
2018-03-19T09:21:53.461Z,6.37
2018-03-19T09:24:22.055Z,17.43
2018-03-19T09:26:50.531Z,6.80
2018-03-19T09:29:18.987Z,17.90
2018-03-19T09:31:47.433Z,8.90
2018-03-19T09:34:15.848Z,5.90
2018-03-19T09:36:44.269Z,13.80
2018-03-19T09:39:12.712Z,7.23
2018-03-19T09:41:41.196Z,3.73
2018-03-19T09:44:09.554Z,6.67
2018-03-19T09:46:37.989Z,8.50
2018-03-19T09:49:06.404Z,8.97
2018-03-19T09:51:34.872Z,4.93
2018-03-19T09:54:03.309Z,7.03
2018-03-19T09:56:31.754Z,9.27
2018-03-19T09:59:00.279Z,11.70
2018-03-19T10:01:28.804Z,11.13
2018-03-19T10:03:57.271Z,12.10
2018-03-19T10:06:25.689Z,11.50
2018-03-19T10:08:54.096Z,12.90
2018-03-19T10:11:22.571Z,7.93
2018-03-19T10:13:50.973Z,14.03
2018-03-19T10:16:19.423Z,8.80
2018-03-19T10:18:47.849Z,17.03
2018-03-19T10:21:16.268Z,4.93
2018-03-19T10:23:44.812Z,5.73
2018-03-19T10:26:13.216Z,6.47
2018-03-19T10:28:41.664Z,8.97
2018-03-19T10:31:10.057Z,10.17
2018-03-19T10:33:38.571Z,5.23
2018-03-19T10:36:06.948Z,5.00
2018-03-19T10:38:35.400Z,7.90
2018-03-19T10:41:03.861Z,7.90
2018-03-19T10:43:32.289Z,10.80
2018-03-19T10:46:00.746Z,4.77
2018-03-19T10:48:29.240Z,7.63
2018-03-19T10:50:57.640Z,7.20
2018-03-19T10:53:26.076Z,4.50
2018-03-19T10:55:54.504Z,12.27
2018-03-19T10:58:23.047Z,6.47
2018-03-19T11:00:51.508Z,6.40
2018-03-19T11:03:25.572Z,4.00
2018-03-19T11:06:09.546Z,8.20
2018-03-19T11:08:48.716Z,3.53
2018-03-19T11:11:17.181Z,8.70
2018-03-19T11:13:45.583Z,17.43
2018-03-19T11:16:14.013Z,8.50
2018-03-19T11:18:42.561Z,12.23
2018-03-19T11:21:10.969Z,10.53
2018-03-19T11:23:39.392Z,4.33
2018-03-19T11:26:07.756Z,5.40
2018-03-19T11:28:36.196Z,4.07
2018-03-19T11:31:04.644Z,8.50
2018-03-19T11:33:33.124Z,11.83
2018-03-19T11:36:01.567Z,6.93
2018-03-19T11:38:29.940Z,5.27
2018-03-19T11:40:58.369Z,8.87
2018-03-19T11:43:26.821Z,7.37
2018-03-19T11:45:55.234Z,6.63
2018-03-19T11:48:23.613Z,7.87
2018-03-19T11:50:52.016Z,6.13
2018-03-19T11:53:20.460Z,7.80
2018-03-19T11:55:48.932Z,6.50
2018-03-19T11:58:17.853Z,10.00
2018-03-19T12:00:46.608Z,5.50
2018-03-19T12:03:15.008Z,6.10
2018-03-19T12:05:43.421Z,6.90
2018-03-19T12:08:11.806Z,4.63
2018-03-19T12:10:40.236Z,13.47
2018-03-19T12:13:08.610Z,7.73
2018-03-19T12:15:37.041Z,7.87
2018-03-19T12:18:05.422Z,7.93
2018-03-19T12:20:33.812Z,5.17
2018-03-19T12:23:02.325Z,8.67
2018-03-19T12:25:30.813Z,8.97
2018-03-19T12:27:59.211Z,8.77
2018-03-19T12:30:27.592Z,9.73
2018-03-19T12:32:55.980Z,7.77
2018-03-19T12:35:24.317Z,7.37
2018-03-19T12:37:52.730Z,6.07
2018-03-19T12:40:21.084Z,15.10
2018-03-19T12:42:49.536Z,9.47
2018-03-19T12:45:17.957Z,7.57
2018-03-19T12:47:46.353Z,6.50
2018-03-19T12:50:14.797Z,4.53
2018-03-19T12:52:43.159Z,5.40
2018-03-19T12:55:11.618Z,14.10
2018-03-19T12:57:39.982Z,7.50
2018-03-19T13:00:08.379Z,15.50
2018-03-19T13:02:36.764Z,7.03
2018-03-19T13:05:05.199Z,6.47
2018-03-19T13:07:33.739Z,9.23
2018-03-19T13:10:02.120Z,8.23
2018-03-19T13:12:30.569Z,10.73
2018-03-19T13:14:59.017Z,11.47
2018-03-19T13:17:27.375Z,9.43
2018-03-19T13:19:55.769Z,5.67
2018-03-19T13:22:24.175Z,5.37
2018-03-19T13:24:52.588Z,8.60
2018-03-19T13:27:20.985Z,7.93
2018-03-19T13:29:49.362Z,8.10
2018-03-19T13:32:18.149Z,8.37
2018-03-19T13:34:46.531Z,8.63
2018-03-19T13:37:14.896Z,9.97
2018-03-19T13:39:43.305Z,8.47
2018-03-19T13:42:11.673Z,8.97
2018-03-19T13:44:40.028Z,6.80
2018-03-19T13:47:08.420Z,8.07
2018-03-19T13:49:36.773Z,8.53
2018-03-19T13:52:05.219Z,10.27
2018-03-19T13:54:33.652Z,8.07
2018-03-19T13:57:02.161Z,9.60
2018-03-19T13:59:30.572Z,8.30
2018-03-19T14:01:58.992Z,7.67
2018-03-19T14:04:27.348Z,6.30
2018-03-19T14:06:55.740Z,8.60
2018-03-19T14:09:24.112Z,6.20
2018-03-19T14:11:52.524Z,6.77
2018-03-19T14:14:20.972Z,6.13
2018-03-19T14:16:49.333Z,8.00
2018-03-19T14:19:17.745Z,11.23
2018-03-19T14:21:46.088Z,7.23
2018-03-19T14:24:14.491Z,7.43
2018-03-19T14:26:42.865Z,5.90
2018-03-19T14:29:11.256Z,6.40
2018-03-19T14:31:39.725Z,4.80
2018-03-19T14:34:08.207Z,4.17
2018-03-19T14:36:36.603Z,4.03
2018-03-19T14:39:05.320Z,4.07
2018-03-19T14:41:34.093Z,4.57
2018-03-19T14:44:02.485Z,5.97
2018-03-19T14:46:30.909Z,6.70
2018-03-19T14:48:59.269Z,5.77
2018-03-19T14:51:27.688Z,6.30
2018-03-19T14:53:56.175Z,7.87
2018-03-19T14:56:24.641Z,5.13
2018-03-19T14:58:53.008Z,4.03
2018-03-19T15:01:22.224Z,6.07
2018-03-19T15:03:52.348Z,7.00
2018-03-19T15:06:21.202Z,4.70
2018-03-19T15:08:49.624Z,5.07
2018-03-19T15:11:18.005Z,6.27
2018-03-19T15:13:46.413Z,5.80
2018-03-19T15:16:14.805Z,7.60
2018-03-19T15:18:43.212Z,6.13
2018-03-19T15:21:11.626Z,7.00
2018-03-19T15:23:40.049Z,8.67
2018-03-19T15:26:08.420Z,6.87
2018-03-19T15:28:36.920Z,6.97
2018-03-19T15:31:05.284Z,7.50
2018-03-19T15:33:33.668Z,9.13
2018-03-19T15:36:02.076Z,7.07
2018-03-19T15:38:30.458Z,8.53
2018-03-19T15:40:58.856Z,6.07
2018-03-19T15:43:27.316Z,6.03
2018-03-19T15:45:55.722Z,8.67
2018-03-19T15:48:24.172Z,8.27
2018-03-19T15:50:52.541Z,8.50
2018-03-19T15:53:21.076Z,9.73
2018-03-19T15:55:49.516Z,13.20
2018-03-19T15:58:17.897Z,9.30
2018-03-19T16:00:46.313Z,13.20
2018-03-19T16:03:14.764Z,9.43
2018-03-19T16:05:43.169Z,9.00
2018-03-19T16:08:11.696Z,10.00
2018-03-19T16:10:40.095Z,11.17
2018-03-19T16:13:08.512Z,9.10
2018-03-19T16:15:36.914Z,10.07
2018-03-19T16:18:05.320Z,9.70
2018-03-19T16:20:33.732Z,9.77
2018-03-19T16:23:02.132Z,12.23
2018-03-19T16:25:30.531Z,13.00
2018-03-19T16:27:58.925Z,10.73
2018-03-19T16:30:27.348Z,10.97
2018-03-19T16:32:55.880Z,9.47
2018-03-19T16:35:24.279Z,7.10
2018-03-19T16:37:52.636Z,7.50
2018-03-19T16:40:22.333Z,7.27
2018-03-19T16:42:50.720Z,6.27
2018-03-19T16:45:19.060Z,9.03
2018-03-19T16:47:47.462Z,7.93
2018-03-19T16:50:15.856Z,7.87
2018-03-19T16:52:44.225Z,6.87
2018-03-19T16:55:12.652Z,8.77
2018-03-19T16:57:41.086Z,9.23
2018-03-19T17:00:09.461Z,9.20
2018-03-19T17:02:37.857Z,8.87
2018-03-19T17:05:06.252Z,6.83
2018-03-19T17:07:34.685Z,9.03
2018-03-19T17:10:03.220Z,9.70
2018-03-19T17:12:31.637Z,10.63
2018-03-19T17:15:00.054Z,9.47
2018-03-19T17:17:28.494Z,7.50
2018-03-19T17:19:56.883Z,11.87
2018-03-19T17:22:25.311Z,9.10
2018-03-19T17:24:53.723Z,11.50
2018-03-19T17:27:22.079Z,11.17
2018-03-19T17:29:50.466Z,13.93
2018-03-19T17:32:18.843Z,11.60
2018-03-19T17:34:47.309Z,11.27
2018-03-19T17:37:15.728Z,15.07
2018-03-19T17:39:44.143Z,16.63
2018-03-19T17:42:12.624Z,14.00
2018-03-19T17:44:40.999Z,12.53
2018-03-19T17:47:09.368Z,13.00
2018-03-19T17:49:37.791Z,12.03
2018-03-19T17:52:06.167Z,12.93
2018-03-19T17:54:34.608Z,14.43
2018-03-19T17:57:03.054Z,16.97
2018-03-19T17:59:31.475Z,14.53
2018-03-19T18:01:59.905Z,16.50
2018-03-19T18:04:28.283Z,12.17
2018-03-19T18:06:56.711Z,12.10
2018-03-19T18:09:25.075Z,15.33
2018-03-19T18:11:53.490Z,16.20
2018-03-19T18:14:21.828Z,11.10
2018-03-19T18:16:50.233Z,12.57
2018-03-19T18:19:18.632Z,12.37
2018-03-19T18:21:47.013Z,9.53
2018-03-19T18:24:15.454Z,9.23
2018-03-19T18:26:43.817Z,10.90
2018-03-19T18:29:12.212Z,11.43
2018-03-19T18:31:40.625Z,10.57
2018-03-19T18:34:09.065Z,10.13
2018-03-19T18:36:37.473Z,9.90
2018-03-19T18:39:05.891Z,10.70
2018-03-19T18:41:34.264Z,9.40
2018-03-19T18:44:02.678Z,10.17
2018-03-19T18:46:31.153Z,10.37
2018-03-19T18:48:59.552Z,8.60
2018-03-19T18:51:27.928Z,8.90
2018-03-19T18:53:56.347Z,9.57
2018-03-19T18:56:24.763Z,11.50
2018-03-19T18:58:53.173Z,8.03
2018-03-19T19:01:21.536Z,14.23
2018-03-19T19:03:49.948Z,9.77
2018-03-19T19:06:18.348Z,8.33
2018-03-19T19:08:46.721Z,7.60
2018-03-19T19:11:15.155Z,9.73
2018-03-19T19:13:43.552Z,9.07
2018-03-19T19:16:11.925Z,7.20
2018-03-19T19:18:40.327Z,7.27
2018-03-19T19:21:08.743Z,8.20
2018-03-19T19:23:37.154Z,7.17
2018-03-19T19:26:05.590Z,8.20
2018-03-19T19:28:33.984Z,6.13
2018-03-19T19:31:02.449Z,6.23
2018-03-19T19:33:30.828Z,7.00
2018-03-19T19:35:59.616Z,7.57
2018-03-19T19:38:27.976Z,8.10
2018-03-19T19:40:56.369Z,7.90
2018-03-19T19:43:24.779Z,7.60
2018-03-19T19:45:53.136Z,9.70
2018-03-19T19:48:21.579Z,9.83
2018-03-19T19:50:49.956Z,8.73
2018-03-19T19:53:18.328Z,8.73
2018-03-19T19:55:46.764Z,9.03
2018-03-19T19:58:15.149Z,8.77
2018-03-19T20:00:43.616Z,10.00
2018-03-19T20:03:12.043Z,10.23
2018-03-19T20:05:40.488Z,10.13
2018-03-19T20:08:08.948Z,8.90
2018-03-19T20:10:37.353Z,8.87
2018-03-19T20:13:05.727Z,7.77
2018-03-19T20:15:34.068Z,7.13
2018-03-19T20:18:02.449Z,7.63
2018-03-19T20:20:30.865Z,9.57
2018-03-19T20:22:59.272Z,9.13
2018-03-19T20:25:27.680Z,8.33
2018-03-19T20:27:56.076Z,7.80
2018-03-19T20:30:24.480Z,6.90
2018-03-19T20:32:52.837Z,8.10
2018-03-19T20:35:21.228Z,6.90
2018-03-19T20:37:49.620Z,9.03
2018-03-19T20:40:17.995Z,9.07
2018-03-19T20:42:46.360Z,9.17
2018-03-19T20:45:14.760Z,14.83
2018-03-19T20:47:43.136Z,13.93
2018-03-19T20:50:11.640Z,14.47
2018-03-19T20:52:40.028Z,17.20
2018-03-19T20:55:08.453Z,9.97
2018-03-19T20:57:36.838Z,10.83
2018-03-19T21:00:05.272Z,9.83
2018-03-19T21:02:33.788Z,10.87
2018-03-19T21:05:02.525Z,11.23
2018-03-19T21:07:30.903Z,9.10
2018-03-19T21:09:59.289Z,11.23
2018-03-19T21:12:27.699Z,8.77
2018-03-19T21:14:56.073Z,9.37
2018-03-19T21:17:24.428Z,10.40
2018-03-19T21:19:52.895Z,10.40
2018-03-19T21:22:21.287Z,8.67
2018-03-19T21:24:49.648Z,5.83
2018-03-19T21:27:18.061Z,6.87
2018-03-19T21:29:46.404Z,7.57
2018-03-19T21:32:14.765Z,8.43
2018-03-19T21:34:43.212Z,7.43
2018-03-19T21:37:11.561Z,8.97
2018-03-19T21:39:39.937Z,6.43
2018-03-19T21:42:08.360Z,7.33
2018-03-19T21:44:36.713Z,6.53
2018-03-19T21:47:05.268Z,6.73
2018-03-19T21:49:33.686Z,9.87
2018-03-19T21:52:02.045Z,6.00
2018-03-19T21:54:30.444Z,6.90
2018-03-19T21:56:58.852Z,7.73
2018-03-19T21:59:27.245Z,6.73
2018-03-19T22:01:55.629Z,6.20
2018-03-19T22:04:23.984Z,6.87
2018-03-19T22:06:52.384Z,6.43
2018-03-19T22:09:20.817Z,7.47
2018-03-19T22:11:49.169Z,9.47
2018-03-19T22:14:17.580Z,5.63
2018-03-19T22:16:45.960Z,8.27
2018-03-19T22:19:14.364Z,6.53
2018-03-19T22:21:42.748Z,7.70
2018-03-19T22:24:11.110Z,5.87
2018-03-19T22:26:39.529Z,6.07
2018-03-19T22:29:07.901Z,6.93
2018-03-19T22:31:36.301Z,5.83
2018-03-19T22:34:04.684Z,7.63
2018-03-19T22:36:33.164Z,7.30
2018-03-19T22:39:01.625Z,6.17
2018-03-19T22:41:30.088Z,6.57
2018-03-19T22:43:58.504Z,6.47
2018-03-19T22:46:26.866Z,6.60
2018-03-19T22:48:55.240Z,7.27
2018-03-19T22:51:23.637Z,6.70
2018-03-19T22:53:52.025Z,7.80
2018-03-19T22:56:20.385Z,7.40
2018-03-19T22:58:48.797Z,9.37
2018-03-19T23:01:17.151Z,7.93
2018-03-19T23:03:45.541Z,7.63
2018-03-19T23:06:13.920Z,10.87
2018-03-19T23:08:42.391Z,14.17
2018-03-19T23:11:10.762Z,8.33
2018-03-19T23:13:39.168Z,10.80
2018-03-19T23:16:07.558Z,9.13
2018-03-19T23:18:35.932Z,5.40
2018-03-19T23:21:04.321Z,5.10
2018-03-19T23:23:32.702Z,5.97
2018-03-19T23:26:01.097Z,7.67
2018-03-19T23:28:29.660Z,8.73
2018-03-19T23:30:58.060Z,10.03
2018-03-19T23:33:26.480Z,10.60
2018-03-19T23:35:54.899Z,14.47
2018-03-19T23:38:23.297Z,22.50
2018-03-19T23:40:51.729Z,23.57
2018-03-19T23:43:20.093Z,25.17
2018-03-19T23:45:48.772Z,29.17
2018-03-19T23:48:17.244Z,27.90
2018-03-19T23:50:45.659Z,26.63
2018-03-19T23:53:14.032Z,25.67
2018-03-19T23:55:42.477Z,25.57
2018-03-19T23:58:10.833Z,26.47
